Time;durP1;ratioP1;P1;durP2;ratioP2;P2;SDS_P1;SDS_P2;PMS_P1;PMS_P2;Temp;Humidity;BMP_temperature;BMP_pressure;BME280_temperature;BME280_humidity;BME280_pressure;Samples;Min_cycle;Max_cycle;Signal;HPM_P1;HPM_P2
2022/09/16 00:00:47;;;;;;;11.27;1.83;;;;;;;19.72;100.00;101310.94;6154817;23;20472;-90
2022/09/16 00:03:16;;;;;;;14.03;2.17;;;;;;;19.72;100.00;101319.28;6155085;23;20408;-91
2022/09/16 00:05:49;;;;;;;13.90;2.43;;;;;;;19.65;100.00;101312.97;6179443;23;20921;-91
2022/09/16 00:08:26;;;;;;;7.40;1.43;;;;;;;19.61;100.00;101309.03;6154275;23;20456;-91
2022/09/16 00:11:00;;;;;;;10.70;2.30;;;;;;;19.65;100.00;101324.91;6156118;23;20404;-91
2022/09/16 00:13:33;;;;;;;11.50;2.37;;;;;;;19.56;100.00;101315.28;6154841;23;20996;-91
2022/09/16 00:16:06;;;;;;;9.73;2.07;;;;;;;19.55;100.00;101318.28;6155375;23;20484;-91
2022/09/16 00:18:36;;;;;;;13.20;2.53;;;;;;;19.49;100.00;101308.13;6155423;23;20397;-91
2022/09/16 00:21:11;;;;;;;16.93;2.77;;;;;;;19.56;100.00;101319.97;6155052;23;20394;-90
2022/09/16 00:23:39;;;;;;;10.30;2.47;;;;;;;19.55;100.00;101319.13;6179287;23;20416;-90
2022/09/16 00:26:09;;;;;;;14.10;2.53;;;;;;;19.50;100.00;101307.06;6129840;23;20420;-90
2022/09/16 00:28:38;;;;;;;8.50;2.50;;;;;;;19.46;100.00;101300.28;6155426;23;20466;-91
2022/09/16 00:31:06;;;;;;;7.20;2.17;;;;;;;19.47;100.00;101301.97;6154947;23;20493;-90
2022/09/16 00:33:35;;;;;;;8.20;1.90;;;;;;;19.50;100.00;101298.75;6154346;23;20416;-90
2022/09/16 00:36:09;;;;;;;11.43;2.53;;;;;;;19.47;100.00;101300.03;6154744;23;20416;-90
2022/09/16 00:38:37;;;;;;;10.30;2.13;;;;;;;19.51;100.00;101305.97;6154274;23;20412;-91
2022/09/16 00:41:05;;;;;;;14.70;2.47;;;;;;;19.43;100.00;101301.63;6128984;23;20441;-91
2022/09/16 00:43:59;;;;;;;18.30;1.87;;;;;;;19.50;100.00;101315.38;6154699;23;20912;-90
2022/09/16 00:46:37;;;;;;;18.83;3.40;;;;;;;19.47;100.00;101310.28;6179409;23;20444;-91
2022/09/16 00:49:14;;;;;;;10.73;2.40;;;;;;;19.35;100.00;101295.56;6179545;23;20477;-91
2022/09/16 00:51:42;;;;;;;17.33;2.67;;;;;;;19.40;100.00;101301.25;6153534;23;20435;-90
2022/09/16 00:54:11;;;;;;;8.50;2.00;;;;;;;19.36;100.00;101294.47;6130174;23;20414;-90
2022/09/16 00:56:40;;;;;;;12.47;2.40;;;;;;;19.36;100.00;101302.81;6154865;23;20378;-91
2022/09/16 00:59:18;;;;;;;10.33;1.70;;;;;;;19.29;100.00;101295.44;6154535;23;20739;-90
2022/09/16 01:01:46;;;;;;;14.83;2.10;;;;;;;19.29;100.00;101298.19;6154015;23;20449;-90
2022/09/16 01:04:18;;;;;;;7.90;2.20;;;;;;;19.22;100.00;101282.78;6154618;23;20405;-90
2022/09/16 01:06:47;;;;;;;11.53;2.73;;;;;;;19.30;100.00;101291.56;6154067;23;20448;-91
2022/09/16 01:09:16;;;;;;;13.87;1.73;;;;;;;19.27;100.00;101288.44;6155929;23;20413;-90
2022/09/16 01:11:51;;;;;;;8.50;1.77;;;;;;;19.30;100.00;101296.28;6156002;23;20787;-91
2022/09/16 01:17:19;;;;;;;6.93;1.70;;;;;;;19.25;100.00;101291.44;6156923;23;20386;-90
2022/09/16 01:20:01;;;;;;;7.20;2.07;;;;;;;19.20;100.00;101277.47;6156441;23;20405;-90
2022/09/16 01:22:49;;;;;;;11.83;2.30;;;;;;;19.22;100.00;101283.63;6155357;23;20433;-90
2022/09/16 01:25:54;;;;;;;6.70;1.80;;;;;;;19.22;100.00;101286.41;6181563;23;20876;-90
2022/09/16 01:28:39;;;;;;;9.43;2.27;;;;;;;19.19;100.00;101281.31;6180628;23;20449;-90
2022/09/16 01:31:16;;;;;;;10.17;2.60;;;;;;;19.16;100.00;101292.88;6129658;23;20409;-91
2022/09/16 01:34:18;;;;;;;5.83;1.40;;;;;;;19.15;100.00;101290.34;6180937;23;20726;-90
2022/09/16 01:37:13;;;;;;;9.10;2.10;;;;;;;19.11;100.00;101286.34;6181063;23;20416;-91
2022/09/16 01:39:48;;;;;;;9.33;2.20;;;;;;;19.08;100.00;101284.88;6177652;23;20393;-90
2022/09/16 01:42:52;;;;;;;12.10;2.10;;;;;;;19.05;100.00;101279.81;6180284;23;20432;-90
2022/09/16 01:45:21;;;;;;;8.50;1.93;;;;;;;19.03;100.00;101286.69;6124428;23;20412;-90
2022/09/16 01:48:16;;;;;;;17.03;2.30;;;;;;;19.01;100.00;101278.63;6169047;23;20441;-90
2022/09/16 01:51:07;;;;;;;17.23;2.23;;;;;;;19.00;100.00;101279.69;6146754;23;20401;-90
2022/09/16 01:53:35;;;;;;;10.90;2.07;;;;;;;19.01;100.00;101280.56;6155793;23;20405;-90
2022/09/16 01:56:16;;;;;;;9.00;2.30;;;;;;;19.01;100.00;101281.41;6132179;23;20409;-90
2022/09/16 01:59:06;;;;;;;10.03;1.67;;;;;;;18.95;100.00;101268.47;6156703;23;20776;-90
2022/09/16 02:01:42;;;;;;;21.03;2.13;;;;;;;18.93;100.00;101281.72;6152597;23;20747;-89
2022/09/16 02:04:19;;;;;;;11.90;2.13;;;;;;;18.93;100.00;101287.25;6179994;23;20464;-90
2022/09/16 02:06:48;;;;;;;14.80;2.73;;;;;;;18.89;100.00;101280.50;6167119;23;20424;-90
2022/09/16 02:09:19;;;;;;;6.13;1.60;;;;;;;18.89;100.00;101275.78;6180510;23;20724;-90
2022/09/16 02:11:47;;;;;;;6.37;1.70;;;;;;;18.87;100.00;101261.34;6156058;23;20394;-90
2022/09/16 02:14:26;;;;;;;8.07;1.63;;;;;;;18.87;100.00;101263.25;6155761;23;20405;-90
2022/09/16 02:16:59;;;;;;;8.30;1.73;;;;;;;18.88;100.00;101264.94;6154551;23;20398;-90
2022/09/16 02:19:40;;;;;;;8.43;2.07;;;;;;;18.90;100.00;101265.56;6154844;23;20417;-90
2022/09/16 02:22:39;;;;;;;11.20;2.13;;;;;;;18.97;100.00;101269.09;6153603;23;20413;-89
2022/09/16 02:25:07;;;;;;;16.93;2.00;;;;;;;19.00;100.00;101265.84;6151512;23;20409;-90
2022/09/16 02:27:35;;;;;;;8.53;1.60;;;;;;;18.96;100.00;101264.63;6131491;23;20429;-90
2022/09/16 02:30:10;;;;;;;10.40;1.87;;;;;;;18.84;100.00;101250.75;6155401;23;20397;-89
2022/09/16 02:32:40;;;;;;;6.97;2.00;;;;;;;18.89;100.00;101255.56;6156487;23;20909;-90
2022/09/16 02:35:10;;;;;;;11.03;2.20;;;;;;;18.89;100.00;101252.78;6155801;23;20393;-90
2022/09/16 02:37:50;;;;;;;9.37;2.43;;;;;;;18.85;100.00;101251.59;6155407;23;20409;-90
2022/09/16 02:40:24;;;;;;;18.63;2.63;;;;;;;18.86;100.00;101248.56;6128447;23;20739;-89
2022/09/16 02:42:53;;;;;;;11.97;2.20;;;;;;;18.88;100.00;101253.88;6180689;23;20405;-90
2022/09/16 02:45:23;;;;;;;16.00;2.43;;;;;;;18.85;100.00;101244.13;6155291;23;20405;-90
2022/09/16 02:48:02;;;;;;;8.23;2.10;;;;;;;18.88;100.00;101245.56;6180238;23;20473;-90
2022/09/16 02:50:43;;;;;;;13.50;2.67;;;;;;;18.87;100.00;101238.31;6154551;23;20728;-90
2022/09/16 02:53:40;;;;;;;12.90;2.80;;;;;;;18.84;100.00;101230.53;6178522;23;20401;-90
2022/09/16 02:56:23;;;;;;;9.73;2.03;;;;;;;18.83;100.00;101226.06;6151552;23;20401;-90
2022/09/16 02:58:51;;;;;;;10.47;2.07;;;;;;;18.79;100.00;101227.59;6155229;23;20394;-90
2022/09/16 03:01:19;;;;;;;10.57;1.63;;;;;;;18.74;100.00;101230.22;6154990;23;20412;-90
2022/09/16 03:03:49;;;;;;;5.60;1.90;;;;;;;18.69;100.00;101221.78;6131177;23;20781;-90
2022/09/16 03:06:24;;;;;;;7.30;1.67;;;;;;;18.72;100.00;101230.47;6131724;23;20412;-89
2022/09/16 03:08:53;;;;;;;8.10;2.73;;;;;;;18.69;100.00;101224.56;6129980;23;20440;-89
2022/09/16 03:11:44;;;;;;;8.33;1.57;;;;;;;18.70;100.00;101227.09;6154682;23;20468;-90
2022/09/16 03:14:35;;;;;;;12.50;1.80;;;;;;;18.73;100.00;101220.22;6179513;23;20439;-90
2022/09/16 03:17:21;;;;;;;8.60;1.73;;;;;;;18.72;100.00;101218.53;6179912;23;20419;-90
2022/09/16 03:19:57;;;;;;;6.20;2.00;;;;;;;18.72;100.00;101218.53;6180253;23;20485;-90
2022/09/16 03:22:32;;;;;;;8.83;2.50;;;;;;;18.70;100.00;101210.47;6155531;23;20412;-90
2022/09/16 03:25:32;;;;;;;7.10;1.70;;;;;;;18.67;100.00;101216.47;6179391;23;20406;-89
2022/09/16 03:28:01;;;;;;;10.50;1.70;;;;;;;18.62;100.00;101202.50;6128511;23;20441;-90
2022/09/16 03:30:37;;;;;;;5.83;1.87;;;;;;;18.57;100.00;101205.94;6178875;23;20413;-90
2022/09/16 03:33:46;;;;;;;9.30;2.33;;;;;;;18.55;100.00;101210.88;6154761;23;20420;-90
2022/09/16 03:36:15;;;;;;;9.10;2.50;;;;;;;18.55;100.00;101210.03;6107728;23;20408;-90
2022/09/16 03:38:45;;;;;;;3.97;1.30;;;;;;;18.51;100.00;101212.41;6154535;23;20420;-90
2022/09/16 03:41:13;;;;;;;11.47;2.23;;;;;;;18.48;100.00;101204.56;6155300;23;20512;-90
2022/09/16 03:43:52;;;;;;;5.83;1.90;;;;;;;18.48;100.00;101201.81;6130640;23;20718;-90
2022/09/16 03:46:20;;;;;;;10.97;1.97;;;;;;;18.47;100.00;101202.88;6129873;23;20406;-90
2022/09/16 03:48:48;;;;;;;13.70;1.43;;;;;;;18.47;100.00;101208.41;6130622;23;20778;-90
2022/09/16 03:51:16;;;;;;;7.23;2.23;;;;;;;18.44;100.00;101200.63;6154495;23;20401;-90
2022/09/16 03:53:46;;;;;;;13.07;2.30;;;;;;;18.41;100.00;101201.06;6129953;23;20409;-90
2022/09/16 03:56:14;;;;;;;7.43;2.13;;;;;;;18.41;100.00;101194.69;6179484;23;20405;-90
2022/09/16 03:58:42;;;;;;;8.43;1.80;;;;;;;18.40;100.00;101193.00;6154783;23;20413;-90
2022/09/16 04:01:11;;;;;;;11.83;2.43;;;;;;;18.38;100.00;101189.63;6131424;23;20406;-89
2022/09/16 04:03:40;;;;;;;7.07;1.93;;;;;;;18.38;100.00;101184.94;6155443;23;20437;-89
2022/09/16 04:06:09;;;;;;;14.80;2.20;;;;;;;18.38;100.00;101190.47;6154717;23;20413;-90
2022/09/16 04:08:44;;;;;;;11.90;1.80;;;;;;;18.36;100.00;101192.63;6130279;23;20441;-90
2022/09/16 04:11:21;;;;;;;5.00;1.47;;;;;;;18.38;100.00;101184.94;6154578;23;20409;-90
2022/09/16 04:13:49;;;;;;;5.63;1.63;;;;;;;18.37;100.00;101182.41;6179799;23;20404;-90
2022/09/16 04:16:22;;;;;;;13.87;2.27;;;;;;;18.38;100.00;101179.41;6155537;23;20393;-90
2022/09/16 04:18:50;;;;;;;11.03;2.00;;;;;;;18.36;100.00;101184.31;6155062;23;20409;-90
2022/09/16 04:21:18;;;;;;;7.97;2.00;;;;;;;18.34;100.00;101183.72;6154395;23;20405;-90
2022/09/16 04:23:46;;;;;;;8.60;2.60;;;;;;;18.30;100.00;101186.09;6154587;23;20923;-90
2022/09/16 04:26:16;;;;;;;18.93;4.50;;;;;;;18.31;100.00;101189.72;6131047;23;20770;-90
2022/09/16 04:28:46;;;;;;;17.63;4.90;;;;;;;18.29;100.00;101178.03;6155242;23;20440;-90
2022/09/16 04:31:19;;;;;;;13.00;4.60;;;;;;;18.26;100.00;101181.28;6154466;23;20435;-90
2022/09/16 04:33:47;;;;;;;18.07;4.97;;;;;;;18.27;100.00;101182.97;6155247;23;20401;-90
2022/09/16 04:36:19;;;;;;;15.20;5.23;;;;;;;18.27;100.00;101185.75;6154314;23;20749;-90
2022/09/16 04:38:46;;;;;;;15.20;4.93;;;;;;;18.24;100.00;101177.91;6179423;23;20389;-90
2022/09/16 04:41:18;;;;;;;15.03;4.77;;;;;;;18.24;100.00;101184.28;6153935;23;20429;-89
2022/09/16 04:43:51;;;;;;;8.67;5.00;;;;;;;18.22;100.00;101180.91;6156599;23;20412;-90
2022/09/16 04:46:19;;;;;;;11.20;4.80;;;;;;;18.26;100.00;101175.75;6157300;23;20710;-90
2022/09/16 04:48:47;;;;;;;12.37;4.97;;;;;;;18.27;100.00;101177.44;6156744;23;20444;-90
2022/09/16 04:51:15;;;;;;;11.77;4.40;;;;;;;18.22;100.00;101174.53;6156284;23;20413;-90
2022/09/16 04:53:44;;;;;;;8.37;3.57;;;;;;;18.23;100.00;101176.22;6156462;23;20416;-90
2022/09/16 04:56:14;;;;;;;9.67;3.40;;;;;;;18.22;100.00;101180.06;6180664;23;20492;-90
2022/09/16 04:58:43;;;;;;;11.50;3.80;;;;;;;18.23;100.00;101187.28;6181451;23;20412;-90
2022/09/16 05:01:15;;;;;;;7.40;3.10;;;;;;;18.18;100.00;101170.53;6157152;23;20386;-90
2022/09/16 05:03:51;;;;;;;6.13;3.47;;;;;;;18.23;100.00;101182.59;6131276;23;20448;-91
2022/09/16 05:06:29;;;;;;;5.30;2.53;;;;;;;18.19;100.00;101172.22;6131651;23;20448;-90
2022/09/16 05:08:59;;;;;;;7.40;3.30;;;;;;;18.19;100.00;101169.44;6155871;23;20452;-89
2022/09/16 05:11:28;;;;;;;7.00;3.47;;;;;;;18.19;100.00;101174.97;6156674;23;20900;-89
2022/09/16 05:14:01;;;;;;;10.13;4.00;;;;;;;18.13;100.00;101160.16;6132415;23;20425;-90
2022/09/16 05:16:34;;;;;;;7.73;3.30;;;;;;;18.20;100.00;101174.75;6155969;23;20408;-90
2022/09/16 05:19:03;;;;;;;7.60;3.87;;;;;;;18.19;100.00;101174.97;6155864;23;20922;-90
2022/09/16 05:21:33;;;;;;;9.27;3.90;;;;;;;18.20;100.00;101177.53;6156353;23;20740;-90
2022/09/16 05:24:14;;;;;;;8.70;3.53;;;;;;;18.19;100.00;101169.44;6131805;23;20425;-90
2022/09/16 05:26:43;;;;;;;6.60;3.20;;;;;;;18.17;100.00;101168.84;6180299;23;20412;-90
2022/09/16 05:29:14;;;;;;;8.27;3.43;;;;;;;18.24;100.00;101177.91;6179671;23;20449;-90
2022/09/16 05:31:43;;;;;;;9.00;3.40;;;;;;;18.25;100.00;101174.06;6132527;23;20919;-90
2022/09/16 05:34:13;;;;;;;8.70;3.70;;;;;;;18.22;100.00;101167.06;6156011;23;20411;-91
2022/09/16 05:36:42;;;;;;;8.73;3.30;;;;;;;18.25;100.00;101174.91;6156133;23;20417;-90
2022/09/16 05:39:11;;;;;;;7.57;3.67;;;;;;;18.21;100.00;101168.16;6156188;23;20421;-90
2022/09/16 05:41:58;;;;;;;5.47;3.07;;;;;;;18.27;100.00;101174.69;6156239;23;20417;-90
2022/09/16 05:44:28;;;;;;;13.43;3.33;;;;;;;18.27;100.00;101178.28;6132482;23;20405;-90
2022/09/16 05:46:55;;;;;;;9.27;3.33;;;;;;;18.25;100.00;101185.13;6132489;23;20396;-89
2022/09/16 05:49:23;;;;;;;9.07;3.50;;;;;;;18.24;100.00;101183.44;6156165;23;20479;-90
2022/09/16 05:51:51;;;;;;;15.30;3.17;;;;;;;18.26;100.00;101193.19;6155856;23;20401;-90
2022/09/16 05:54:23;;;;;;;7.97;2.70;;;;;;;18.27;100.00;101199.59;6155938;23;20785;-90
2022/09/16 05:56:52;;;;;;;14.23;2.93;;;;;;;18.22;100.00;101203.03;6155766;23;20468;-90
2022/09/16 05:59:20;;;;;;;4.93;2.20;;;;;;;18.22;100.00;101199.44;6131823;23;20417;-90
2022/09/16 06:01:49;;;;;;;6.93;2.83;;;;;;;18.18;100.00;101207.34;6155625;23;20458;-90
2022/09/16 06:04:17;;;;;;;9.27;2.87;;;;;;;18.19;100.00;101203.50;6155861;23;20436;-90
2022/09/16 06:06:53;;;;;;;8.20;2.90;;;;;;;18.17;100.00;101196.50;6131452;23;20415;-90
2022/09/16 06:09:23;;;;;;;7.40;2.57;;;;;;;18.16;100.00;101200.34;6156644;23;20433;-90
2022/09/16 06:11:51;;;;;;;4.03;2.40;;;;;;;18.16;100.00;101200.34;6156167;23;20394;-90
2022/09/16 06:14:27;;;;;;;6.20;2.40;;;;;;;18.19;100.00;101213.72;6133237;23;20406;-90
2022/09/16 06:16:56;;;;;;;20.97;2.60;;;;;;;18.18;100.00;101206.50;6155578;23;20409;-90
2022/09/16 06:19:30;;;;;;;6.63;2.73;;;;;;;18.22;100.00;101216.03;6155665;23;20417;-90
2022/09/16 06:22:05;;;;;;;8.37;2.07;;;;;;;18.22;100.00;101216.03;6155162;23;20405;-90
2022/09/16 06:24:33;;;;;;;6.23;2.33;;;;;;;18.23;100.00;101226.03;6132277;23;20401;-90
2022/09/16 06:27:06;;;;;;;7.00;2.53;;;;;;;18.21;100.00;101217.94;6156323;23;20410;-91
2022/09/16 06:29:38;;;;;;;9.10;2.83;;;;;;;18.22;100.00;101216.88;6181856;23;20437;-91
2022/09/16 06:32:12;;;;;;;7.10;2.60;;;;;;;18.25;100.00;101221.09;6181112;23;20927;-91
2022/09/16 06:34:40;;;;;;;7.47;2.37;;;;;;;18.30;100.00;101222.06;6156963;23;20896;-91
2022/09/16 06:37:15;;;;;;;7.80;3.13;;;;;;;18.37;100.00;101224.75;6156738;23;20888;-92
2022/09/16 06:39:59;;;;;;;7.63;2.40;;;;;;;18.46;100.00;101211.47;6156233;23;20416;-92
2022/09/16 06:42:27;;;;;;;8.03;3.47;;;;;;;18.52;100.00;101214.09;6155985;23;20425;-93
2022/09/16 06:45:47;;;;;;;11.23;2.73;;;;;;;18.65;100.00;101226.13;6133568;23;20409;-92
2022/09/16 06:48:41;;;;;;;7.97;2.60;;;;;;;18.72;100.00;101229.63;6132861;23;20782;-94
2022/09/16 06:51:18;;;;;;;7.40;2.10;;;;;;;18.73;100.00;101221.06;6179128;23;20405;-93
2022/09/16 06:53:48;;;;;;;12.03;3.00;;;;;;;18.82;100.00;101222.44;6179825;23;20987;-93
2022/09/16 06:56:18;;;;;;;7.70;2.60;;;;;;;18.86;100.00;101222.78;6131360;23;20900;-93
2022/09/16 06:58:52;;;;;;;6.30;2.10;;;;;;;18.93;100.00;101223.53;6131979;23;20418;-93
2022/09/16 07:01:25;;;;;;;5.20;2.20;;;;;;;19.01;100.00;101223.22;6180253;23;20441;-92
2022/09/16 07:03:53;;;;;;;10.03;2.17;;;;;;;19.08;100.00;101217.53;6155981;23;20408;-93
2022/09/16 07:06:23;;;;;;;11.33;2.53;;;;;;;19.17;100.00;101225.28;6155262;23;20410;-93
2022/09/16 07:09:11;;;;;;;6.20;2.43;;;;;;;19.28;100.00;101229.97;6176737;23;20445;-93
2022/09/16 07:11:39;;;;;;;12.43;2.63;;;;;;;19.41;100.00;101223.38;6156494;23;20401;-93
2022/09/16 07:14:08;;;;;;;8.90;2.17;;;;;;;19.48;100.00;101240.72;6131967;23;20413;-93
2022/09/16 07:16:37;;;;;;;7.60;2.67;;;;;;;19.50;100.00;101229.44;6157027;23;20406;-92
2022/09/16 07:19:05;;;;;;;9.03;2.63;;;;;;;19.62;100.00;101236.69;6132807;23;20418;-93
2022/09/16 07:21:33;;;;;;;13.70;2.63;;;;;;;19.68;100.00;101229.31;6155954;23;20413;-92
2022/09/16 07:24:02;;;;;;;9.10;2.40;;;;;;;19.77;100.00;101240.88;6157091;23;20488;-94
2022/09/16 07:26:36;;;;;;;12.90;2.40;;;;;;;19.85;100.00;101246.03;6156509;23;20401;-90
2022/09/16 07:29:05;;;;;;;7.30;2.40;;;;;;;19.93;100.00;101249.31;6179117;23;20448;-91
2022/09/16 07:31:35;;;;;;;5.60;1.90;;;;;;;20.01;100.00;101254.47;6131511;23;20424;-91
2022/09/16 07:34:26;;;;;;;7.23;2.03;;;;;;;20.10;100.00;101240.22;6155399;23;20409;-94
2022/09/16 07:36:55;;;;;;;7.50;1.90;;;;;;;20.15;100.00;101240.34;6179233;23;20394;-88
2022/09/16 07:39:24;;;;;;;10.23;2.57;;;;;;;20.19;100.00;101241.53;6154553;23;20406;-88
2022/09/16 07:41:52;;;;;;;8.53;1.40;;;;;;;20.28;100.00;101248.38;6127416;23;20492;-89
2022/09/16 07:44:20;;;;;;;10.37;1.80;;;;;;;20.33;100.00;101246.56;6155250;23;20405;-91
2022/09/16 07:46:50;;;;;;;13.57;1.43;;;;;;;20.33;100.00;101229.91;6130982;23;20429;-89
2022/09/16 07:49:30;;;;;;;14.60;1.90;;;;;;;20.50;100.00;101243.88;6156151;23;20477;-93
2022/09/16 07:52:07;;;;;;;4.53;1.70;;;;;;;20.59;100.00;101253.50;6155548;23;20413;-94
2022/09/16 07:54:49;;;;;;;9.00;1.40;;;;;;;20.62;100.00;101247.44;6180334;23;20488;-93
2022/09/16 07:57:17;;;;;;;3.07;1.40;;;;;;;20.71;100.00;101249.84;6155314;23;20825;-91
2022/09/16 07:59:47;;;;;;;5.13;1.50;;;;;;;20.71;100.00;101230.38;6130508;23;20528;-91
2022/09/16 08:02:15;;;;;;;5.43;1.10;;;;;;;20.82;100.00;101241.44;6131393;23;20400;-90
2022/09/16 08:04:54;;;;;;;6.50;2.00;;;;;;;20.90;100.00;101240.19;6131384;23;20473;-90
2022/09/16 08:07:24;;;;;;;5.53;1.27;;;;;;;20.99;100.00;101242.28;6155136;23;20951;-91
2022/09/16 08:09:53;;;;;;;5.33;1.07;;;;;;;21.05;100.00;101234.91;6130550;23;20446;-90
2022/09/16 08:12:32;;;;;;;4.33;1.40;;;;;;;21.19;100.00;101246.53;6130450;23;20476;-90
2022/09/16 08:15:01;;;;;;;6.13;1.40;;;;;;;21.26;100.00;101239.75;6130789;23;20390;-90
2022/09/16 08:17:30;;;;;;;6.77;1.50;;;;;;;21.35;100.00;101245.75;6154780;23;20972;-91
2022/09/16 08:20:07;;;;;;;7.20;1.43;;;;;;;21.49;100.00;101252.66;6154748;23;20477;-90
2022/09/16 08:22:37;;;;;;;4.80;1.03;;;;;;;21.58;100.00;101255.81;6154324;23;20484;-90
2022/09/16 08:25:06;;;;;;;4.53;1.30;;;;;;;21.62;100.00;101257.84;6130282;23;20505;-91
2022/09/16 08:27:36;;;;;;;10.70;1.87;;;;;;;21.70;100.00;101257.44;6130530;23;20441;-91
2022/09/16 08:30:09;;;;;;;4.53;1.20;;;;;;;21.78;100.00;101261.69;6130691;23;20932;-91
2022/09/16 08:32:38;;;;;;;2.10;0.80;;;;;;;21.79;100.00;101252.25;6154952;23;20397;-90
2022/09/16 08:35:13;;;;;;;3.37;1.20;;;;;;;21.94;100.00;101263.59;6155029;23;20434;-90
2022/09/16 08:42:06;;;;;;;4.97;1.07;;;;;;;22.14;100.00;101268.66;6154526;23;20884;-90
2022/09/16 08:44:44;;;;;;;12.40;1.37;;;;;;;22.24;100.00;101265.16;6149530;23;20429;-91
2022/09/16 08:47:22;;;;;;;10.17;1.00;;;;;;;22.32;100.00;101273.09;6101201;23;20755;-91
2022/09/16 08:49:53;;;;;;;3.33;0.87;;;;;;;22.40;100.00;101264.25;6124667;23;20445;-91
2022/09/16 08:52:34;;;;;;;8.20;1.53;;;;;;;22.46;100.00;101271.59;6101626;23;20398;-91
2022/09/16 08:55:24;;;;;;;6.20;1.63;;;;;;;22.55;99.82;101266.38;6100246;23;20403;-91
2022/09/16 08:58:06;;;;;;;5.77;1.13;;;;;;;22.66;99.15;101274.63;6099680;23;20451;-91
2022/09/16 09:00:36;;;;;;;6.80;1.10;;;;;;;22.69;98.16;101267.69;6100481;23;20451;-90
2022/09/16 09:03:57;;;;;;;6.47;1.40;;;;;;;22.89;97.49;101278.25;6080650;23;20386;-90
2022/09/16 09:06:34;;;;;;;9.50;1.00;;;;;;;22.97;96.91;101286.97;6102063;23;20406;-90
2022/09/16 09:09:30;;;;;;;5.93;1.10;;;;;;;23.03;95.92;101276.72;6149047;23;20524;-91
2022/09/16 09:12:21;;;;;;;4.37;1.00;;;;;;;23.01;94.56;101267.75;6121977;23;20430;-91
2022/09/16 09:15:25;;;;;;;5.57;1.40;;;;;;;23.06;94.34;101285.41;6123710;23;20470;-91
2022/09/16 09:18:20;;;;;;;6.90;1.40;;;;;;;23.08;94.15;101283.19;6124924;23;20402;-90
2022/09/16 09:20:54;;;;;;;10.60;1.50;;;;;;;23.17;93.99;101291.06;6100926;23;20438;-90
2022/09/16 09:23:48;;;;;;;11.10;1.77;;;;;;;23.27;94.24;101286.44;6149000;23;20408;-90
2022/09/16 09:26:27;;;;;;;5.57;0.80;;;;;;;23.34;93.40;101280.63;6124629;23;20406;-91
2022/09/16 09:29:07;;;;;;;3.67;1.00;;;;;;;23.47;92.67;101287.72;6099965;23;20492;-91
2022/09/16 09:32:12;;;;;;;6.10;1.37;;;;;;;23.53;92.53;101269.94;6150179;23;20462;-90
2022/09/16 09:35:03;;;;;;;4.60;1.07;;;;;;;23.68;91.49;101282.03;6123177;23;20743;-90
2022/09/16 09:38:00;;;;;;;5.03;1.10;;;;;;;23.81;90.58;101280.75;6122790;23;20416;-91
2022/09/16 09:40:34;;;;;;;4.60;0.90;;;;;;;23.84;89.61;101282.16;6151021;23;20469;-91
2022/09/16 09:43:18;;;;;;;6.60;1.30;;;;;;;23.95;89.70;101272.75;6114248;23;20817;-90
2022/09/16 09:45:54;;;;;;;3.73;1.13;;;;;;;24.06;89.08;101272.50;6180405;23;20440;-93
2022/09/16 09:48:37;;;;;;;4.97;1.20;;;;;;;24.11;88.31;101264.16;6181242;23;20717;-90
2022/09/16 09:51:12;;;;;;;3.33;0.90;;;;;;;24.18;87.17;101260.31;6180694;23;20386;-90
2022/09/16 09:53:45;;;;;;;4.13;1.00;;;;;;;24.21;86.55;101259.75;6130462;23;20415;-91
2022/09/16 09:56:22;;;;;;;9.63;1.10;;;;;;;24.24;85.79;101271.28;6180943;23;20485;-92
2022/09/16 09:58:56;;;;;;;5.53;0.97;;;;;;;24.28;85.39;101252.81;6181031;23;20446;-91
2022/09/16 10:01:25;;;;;;;4.37;1.00;;;;;;;24.41;83.87;101262.69;6180759;23;20413;-91
2022/09/16 10:03:56;;;;;;;4.20;0.70;;;;;;;24.58;82.44;101260.50;6156611;23;20845;-91
2022/09/16 10:06:29;;;;;;;3.03;0.60;;;;;;;24.83;81.56;101270.06;6156106;23;20450;-92
2022/09/16 10:08:57;;;;;;;2.40;1.00;;;;;;;24.94;80.83;101266.19;6131409;23;20908;-91
2022/09/16 10:11:48;;;;;;;11.97;1.57;;;;;;;24.99;80.37;101274.63;6131223;23;20413;-91
2022/09/16 10:14:31;;;;;;;3.93;0.93;;;;;;;25.02;79.25;101271.25;6155998;23;20381;-91
2022/09/16 10:17:01;;;;;;;4.60;1.13;;;;;;;25.09;79.02;101263.44;6179837;23;20417;-91
2022/09/16 10:19:40;;;;;;;2.57;0.80;;;;;;;25.24;77.83;101266.25;6155351;23;20409;-91
2022/09/16 10:22:17;;;;;;;4.47;0.90;;;;;;;25.45;76.58;101270.72;6178823;23;20464;-91
2022/09/16 10:24:55;;;;;;;2.97;0.80;;;;;;;25.54;74.94;101273.81;6154541;23;20469;-91
2022/09/16 10:27:34;;;;;;;2.53;0.70;;;;;;;25.65;74.99;101260.66;6131471;23;20412;-90
2022/09/16 10:30:21;;;;;;;6.70;1.37;;;;;;;25.74;74.64;101250.59;6156238;23;20435;-91
2022/09/16 10:33:31;;;;;;;3.23;0.80;;;;;;;25.94;73.43;101246.91;6164594;23;20491;-92
2022/09/16 10:36:04;;;;;;;3.73;0.80;;;;;;;26.08;72.37;101247.97;6148899;23;20892;-91
2022/09/16 10:38:42;;;;;;;6.17;1.00;;;;;;;26.18;71.20;101239.53;6179365;23;20492;-91
2022/09/16 10:41:21;;;;;;;5.73;1.07;;;;;;;26.35;70.28;101233.63;6131190;23;20425;-91
2022/09/16 10:44:00;;;;;;;7.77;1.10;;;;;;;26.57;69.36;101234.06;6154612;23;20467;-91
2022/09/16 10:46:32;;;;;;;3.60;0.80;;;;;;;26.82;68.15;101236.72;6129389;23;20495;-91
2022/09/16 10:49:08;;;;;;;5.50;1.00;;;;;;;26.75;67.05;101240.97;6131217;23;20413;-91
2022/09/16 10:51:44;;;;;;;3.17;1.20;;;;;;;26.52;66.80;101225.69;6131180;23;20516;-91
2022/09/16 10:54:28;;;;;;;5.30;1.40;;;;;;;26.37;67.86;101229.38;6131861;23;20401;-91
2022/09/16 10:57:21;;;;;;;4.93;1.07;;;;;;;26.20;68.15;101223.25;6154981;23;20927;-91
2022/09/16 11:00:17;;;;;;;3.63;0.70;;;;;;;26.13;68.42;101234.81;6154864;23;20449;-91
2022/09/16 11:03:03;;;;;;;3.17;0.70;;;;;;;26.21;68.71;101229.72;6129437;23;20413;-91
2022/09/16 11:05:56;;;;;;;16.20;2.03;;;;;;;26.49;68.80;101237.47;6180246;23;20935;-91
2022/09/16 11:08:51;;;;;;;3.73;0.83;;;;;;;26.84;67.56;101234.47;6179510;23;20504;-91
2022/09/16 11:11:49;;;;;;;4.10;0.73;;;;;;;27.17;66.03;101238.44;6178508;23;20488;-92
2022/09/16 11:14:44;;;;;;;3.53;1.17;;;;;;;27.15;65.64;101242.69;6180278;23;20394;-91
2022/09/16 11:17:27;;;;;;;4.17;1.30;;;;;;;26.93;65.71;101236.66;6131798;23;20390;-91
2022/09/16 11:20:19;;;;;;;5.17;1.90;;;;;;;26.79;67.37;101242.91;6179453;23;20473;-91
2022/09/16 11:23:17;;;;;;;4.50;0.87;;;;;;;26.66;70.28;101235.13;6131384;23;20397;-92
2022/09/16 11:25:55;;;;;;;5.97;1.20;;;;;;;26.55;73.25;101230.72;6131428;23;20475;-91
2022/09/16 11:28:32;;;;;;;5.67;1.40;;;;;;;26.47;75.19;101225.72;6131593;23;20904;-91
2022/09/16 11:31:28;;;;;;;5.10;1.10;;;;;;;26.44;76.31;101218.72;6130947;23;20452;-91
2022/09/16 11:34:33;;;;;;;4.50;1.43;;;;;;;26.55;77.14;101224.28;6176475;23;20433;-91
2022/09/16 11:37:14;;;;;;;9.47;2.30;;;;;;;26.54;76.25;101209.41;6131075;23;20484;-91
2022/09/16 11:40:11;;;;;;;6.90;1.37;;;;;;;26.54;75.43;101206.63;6131904;23;20464;-91
2022/09/16 11:43:14;;;;;;;6.40;0.93;;;;;;;26.62;72.34;101210.75;6155456;23;20401;-91
2022/09/16 11:45:46;;;;;;;2.90;0.90;;;;;;;26.56;69.49;101195.06;6130594;23;20471;-91
2022/09/16 11:48:24;;;;;;;7.23;3.93;;;;;;;26.64;68.65;101206.53;6179183;23;20405;-91
2022/09/16 11:51:27;;;;;;;27.50;17.40;;;;;;;26.56;68.05;101195.91;6180259;23;20469;-92
2022/09/16 11:54:13;;;;;;;2.60;1.30;;;;;;;26.60;68.00;101199.81;6158612;23;20436;-91
2022/09/16 11:57:07;;;;;;;22.30;6.23;;;;;;;26.61;67.68;101190.28;6130287;23;20464;-91
2022/09/16 11:59:55;;;;;;;3.70;0.80;;;;;;;26.63;67.53;101190.00;6153815;23;20721;-91
2022/09/16 12:02:39;;;;;;;4.60;1.70;;;;;;;26.54;67.03;101184.19;6178144;23;20409;-91
2022/09/16 12:05:26;;;;;;;5.97;1.23;;;;;;;26.62;67.47;101203.19;6151578;23;20433;-91
2022/09/16 12:08:11;;;;;;;4.57;1.50;;;;;;;26.62;68.87;101194.78;6130940;23;20919;-91